Relevés horaires Matro (Suisse)


Relevés horaires à Matro - Dimanche 10 Janv. 2021
Heure UTC1 Température [°C] Vent [km/h] Hum. [%] Pres.4 [hPa] Visi. [Km] Nébu. [octa] Préc.5 [mm] Cond.
2m. Res. Ros. Dir.2 Vit. Moy. Raf.3
23:00 -6.5 -14.4 -30.9 NO 25.9 -- 38.9 12 850(0.3/3h) -- -- -- --
22:00 -6.9 -14.9 -29.0 NO 25.9 -- 38.9 15 850(0.3/3h) -- -- -- --
21:00 -6.6 -14 -29.6 NO 22.2 -- 38.9 14 850(0.5/3h) -- -- -- --
20:00 -6.7 -14.4 -30.0 NO 24.1 -- 37.0 14 850(0.3/3h) -- -- -- --
19:00 -6.9 -14.6 -30.6 NO 24.1 -- 37.0 13 850(0.2/3h) -- -- -- --
18:00 -7.2 -14.4 -29.3 NO 20.4 -- 44.4 15 850(-0.1/3h) -- -- -- --
17:00 -6.7 -15.4 -30.0 NO 31.5 -- 44.4 14 850(0.0/3h) -- -- -- --
16:00 -6.6 -14.5 -29.4 NNO 25.9 -- 37.0 14 850(-0.2/3h) -- -- -- --
15:00 -6.3 -12.9 -27.1 NO 18.5 -- 27.8 17 850(-0.3/3h) -- -- -- --
14:00 -6.4 -12.7 -26.1 NO 16.7 -- 24.1 19 850(-0.6/3h) -- -- -- --
13:00 -7.0 -12.6 -24.3 NO 13.0 -- 16.7 24 850(-0.7/3h) -- -- -- --
12:00 -7.8 -7.8 -18.6 ONO 3.7 -- 18.5 41 850(0.0/3h) -- -- -- --
11:00 -7.9 -12.5 -20.6 NO 9.3 -- 13.0 35 850(0.5/3h) -- -- -- --
10:00 -7.7 -7.7 -17.8 ENE 3.7 -- 11.1 44 850(1.1/3h) -- -- -- --
09:00 -8.3 -11.4 -23.8 N 5.6 -- 18.5 27 850(0.7/3h) -- -- -- --
08:00 -6.7 -10.4 -29.4 ONO 7.4 -- 18.5 14 850(0.2/3h) -- -- -- --
07:00 -6.6 -12.1 -29.5 NO 13.0 -- 18.5 14 850(-0.5/3h) -- -- -- --
06:00 -6.8 -13.2 -27.1 NO 16.7 -- 18.5 18 850(-0.9/3h) -- -- -- --
05:00 -7.9 -12.5 -24.6 NNO 9.3 -- 13.0 25 850(-0.8/3h) -- -- -- --
04:00 -8.6 -8.6 -22.6 NNO 3.7 -- 16.7 31 850(-0.6/3h) -- -- -- --
03:00 -8.6 -12.6 -22.8 NNO 7.4 -- 13.0 31 850(-0.4/3h) -- -- -- --
02:00 -9.5 -12.7 -21.2 N 5.6 -- 9.3 38 850(-0.6/3h) -- -- -- --
01:00 -9.6 -9.6 -20.7 O 1.9 -- 7.4 40 850(-0.5/3h) -- -- -- --
00:00 -9.9 -13.2 -20.4 ESE 5.6 -- 13.0 42 850(-0.2/3h) -- -- -- --

1 Coordinated Universal Time. Actuellement il est 13:00 locale et 11:00 UTC.

2 Le vent souffle depuis la direction indiquée vers la direction oposée.

3 Les rafales max. sont disponible 40 min après l'heure du relevé.

4 Pour les stations d'altitude (plus de 600m) le géopotentiel du niveau le plus proche de la pression obligatoire est indiqué.

5 Les stations disposant d'un diffuseur peuvent indiquer "trace". Cela signifie que des précipitations ont touchés le sol mais que la quantité est inférieure à 0.1 mm.

Copyright

Les données affichées sur cette page sont la propriété exclusive de Météo Suisse.

Récapitulatif de la journée
Température [°C] Vent [km/h] Ensoleillement4 [h] Precipitations totale5 [mm] Pression [Hpa]
Min1 Max.2 Moy.3 Max. Min Max.
-10.1 -6.1 0 44.4 7 h 48 min 0 850.0 850.0

1 Température minimale relevée entre 18:00 UTC la veille et 18:00 UTC le jour donné.

2 Température maximale relevée entre 06:00 UTC le jour donné et 06:00 UTC le lendemain.

3 Vent moyen de la journée basé sur les relevés horaires.

4 Ensoleillement en heures relevé entre 06:00 UTC la veille et 06:00 UTC le jour donné.

5 Précipitations totales tombées entre 06:00 UTC la jour donné et 06:00 UTC le lendemain.

Graphiques horaires